Terminal Aerodrome Forecast
Issued by NWS

Home | Current Version | Previous Version | Text Only | Print | Product List | Glossary On
Versions: 1 2 3 4 5 6 7 8 9 10 11 12 13 14
747
FTUS43 KEAX 052321
TAFSTJ
TAF
KSTJ 052321Z 0600/0624 18005KT P6SM BKN100
     FM060800 30005KT P6SM BKN070
      TEMPO 0609/0613 4SM BR
     FM061500 24008KT P6SM SCT050=

USA.gov is the U.S. government's official web portal to all federal, state and local government web resources and services.